createdAt,value
2023-01-07T00:01:38.948Z,3.70
2023-01-07T00:04:27.940Z,3.70
2023-01-07T00:07:16.859Z,3.90
2023-01-07T00:10:06.269Z,3.90
2023-01-07T00:12:55.334Z,4.00
2023-01-07T00:15:45.429Z,4.00
2023-01-07T00:18:34.423Z,4.00
2023-01-07T00:21:24.642Z,4.00
2023-01-07T00:24:14.063Z,4.10
2023-01-07T00:27:02.867Z,4.10
2023-01-07T00:29:51.567Z,4.00
2023-01-07T00:32:54.631Z,4.10
2023-01-07T00:35:45.101Z,4.10
2023-01-07T00:38:33.933Z,4.20
2023-01-07T00:41:22.673Z,4.20
2023-01-07T00:44:11.487Z,4.30
2023-01-07T00:47:01.010Z,4.20
2023-01-07T00:49:51.244Z,4.20
2023-01-07T00:52:39.930Z,4.20
2023-01-07T00:55:30.028Z,4.30
2023-01-07T00:58:22.047Z,4.30
2023-01-07T01:01:12.651Z,4.30
2023-01-07T01:04:02.036Z,4.30
2023-01-07T01:06:52.420Z,4.40
2023-01-07T01:09:41.243Z,4.40
2023-01-07T01:12:30.357Z,4.50
2023-01-07T01:15:20.033Z,4.50
2023-01-07T01:18:08.808Z,4.50
2023-01-07T01:20:57.687Z,4.40
2023-01-07T01:23:48.565Z,4.50
2023-01-07T01:26:37.524Z,4.50
2023-01-07T01:29:26.426Z,4.50
2023-01-07T01:32:15.750Z,4.40
2023-01-07T01:35:06.833Z,4.40
2023-01-07T01:37:55.613Z,4.50
2023-01-07T01:40:47.177Z,4.40
2023-01-07T01:43:38.412Z,4.50
2023-01-07T01:46:34.532Z,4.50
2023-01-07T01:49:27.631Z,4.60
2023-01-07T01:52:19.221Z,4.60
2023-01-07T01:55:11.128Z,4.60
2023-01-07T01:58:05.089Z,4.50
2023-01-07T02:00:54.523Z,4.50
2023-01-07T02:03:44.355Z,4.60
2023-01-07T02:06:43.321Z,4.60
2023-01-07T02:09:32.249Z,4.60
2023-01-07T02:12:40.881Z,4.60
2023-01-07T02:15:39.467Z,4.70
2023-01-07T02:18:43.663Z,4.70
2023-01-07T02:21:43.298Z,4.70
2023-01-07T02:25:06.284Z,4.70
2023-01-07T02:28:33.028Z,4.80
2023-01-07T02:31:39.488Z,4.80
2023-01-07T02:34:38.089Z,4.80
2023-01-07T02:37:34.324Z,4.80
2023-01-07T02:40:29.242Z,4.80
2023-01-07T02:43:24.130Z,4.90
2023-01-07T02:46:20.172Z,4.90
2023-01-07T02:49:11.196Z,4.90
2023-01-07T02:52:18.955Z,4.90
2023-01-07T02:55:11.786Z,5.00
2023-01-07T02:58:48.159Z,5.00
2023-01-07T03:01:49.553Z,5.00
2023-01-07T03:05:13.612Z,5.00
2023-01-07T03:08:23.012Z,4.90
2023-01-07T03:11:12.756Z,5.00
2023-01-07T03:14:07.770Z,5.00
2023-01-07T03:17:01.529Z,5.00
2023-01-07T03:19:55.940Z,5.00
2023-01-07T03:22:46.098Z,5.00
2023-01-07T03:25:45.310Z,5.10
2023-01-07T03:28:37.501Z,5.00
2023-01-07T03:31:29.345Z,4.90
2023-01-07T03:34:22.148Z,4.80
2023-01-07T03:37:16.654Z,4.80
2023-01-07T03:40:10.795Z,4.90
2023-01-07T03:43:02.630Z,5.00
2023-01-07T03:45:53.565Z,4.90
2023-01-07T03:48:42.484Z,4.90
2023-01-07T03:51:31.382Z,4.80
2023-01-07T03:54:20.319Z,4.70
2023-01-07T03:57:09.188Z,4.70
2023-01-07T04:00:00.040Z,4.70
2023-01-07T04:02:49.036Z,4.70
2023-01-07T04:05:44.382Z,4.80
2023-01-07T04:08:34.237Z,4.80
2023-01-07T04:11:23.323Z,4.80
2023-01-07T04:14:13.159Z,4.80
2023-01-07T04:17:03.310Z,4.80
2023-01-07T04:19:52.121Z,4.90
2023-01-07T04:22:40.972Z,4.90
2023-01-07T04:25:32.613Z,4.90
2023-01-07T04:28:24.832Z,4.90
2023-01-07T04:31:13.777Z,4.90
2023-01-07T04:34:04.037Z,4.90
2023-01-07T04:36:52.944Z,4.80
2023-01-07T04:39:42.343Z,4.90
2023-01-07T04:42:31.188Z,4.90
2023-01-07T04:45:20.352Z,4.90
2023-01-07T04:48:09.445Z,5.10
2023-01-07T04:50:59.929Z,5.00
2023-01-07T04:53:49.962Z,5.10
2023-01-07T04:56:39.303Z,5.10
2023-01-07T04:59:29.161Z,5.20
2023-01-07T05:02:18.146Z,5.20
2023-01-07T05:05:07.707Z,5.20
2023-01-07T05:07:58.906Z,5.10
2023-01-07T05:10:51.337Z,5.20
2023-01-07T05:13:40.559Z,5.20
2023-01-07T05:16:29.472Z,5.20
2023-01-07T05:19:23.137Z,5.30
2023-01-07T05:22:13.129Z,5.20
2023-01-07T05:25:05.274Z,5.30
2023-01-07T05:27:53.999Z,5.30
2023-01-07T05:30:45.510Z,5.40
2023-01-07T05:33:34.498Z,5.40
2023-01-07T05:36:24.493Z,5.40
2023-01-07T05:39:13.455Z,5.40
2023-01-07T05:42:04.294Z,5.40
2023-01-07T05:44:53.389Z,5.40
2023-01-07T05:47:43.704Z,5.40
2023-01-07T05:50:32.647Z,5.40
2023-01-07T05:53:22.101Z,5.40
2023-01-07T05:56:10.843Z,5.30
2023-01-07T05:59:01.238Z,5.30
2023-01-07T06:01:50.034Z,5.30
2023-01-07T06:04:38.968Z,5.40
2023-01-07T06:07:28.484Z,5.40
2023-01-07T06:10:17.563Z,5.50
2023-01-07T06:13:06.451Z,5.50
2023-01-07T06:16:01.445Z,5.50
2023-01-07T06:18:50.229Z,5.50
2023-01-07T06:21:39.037Z,5.50
2023-01-07T06:24:27.892Z,5.50
2023-01-07T06:27:16.680Z,5.50
2023-01-07T06:30:06.124Z,5.50
2023-01-07T06:32:56.293Z,5.50
2023-01-07T06:35:46.771Z,5.60
2023-01-07T06:38:36.160Z,5.60
2023-01-07T06:41:24.988Z,5.60
2023-01-07T06:44:13.874Z,5.60
2023-01-07T06:47:02.634Z,5.70
2023-01-07T06:49:52.800Z,5.50
2023-01-07T06:52:42.685Z,5.50
2023-01-07T06:55:31.576Z,5.50
2023-01-07T06:58:21.193Z,5.50
2023-01-07T07:01:10.630Z,5.50
2023-01-07T07:03:59.349Z,5.30
2023-01-07T07:06:49.349Z,5.40
2023-01-07T07:09:38.017Z,5.40
2023-01-07T07:12:26.696Z,5.50
2023-01-07T07:15:16.016Z,5.40
2023-01-07T07:18:04.882Z,5.40
2023-01-07T07:20:53.599Z,5.40
2023-01-07T07:23:43.891Z,5.30
2023-01-07T07:26:32.984Z,5.30
2023-01-07T07:29:21.975Z,5.40
2023-01-07T07:32:11.347Z,5.50
2023-01-07T07:35:00.118Z,5.60
2023-01-07T07:37:48.981Z,5.60
2023-01-07T07:40:39.169Z,5.60
2023-01-07T07:43:28.183Z,5.60
2023-01-07T07:46:17.108Z,5.60
2023-01-07T07:49:06.872Z,5.70
2023-01-07T07:51:55.590Z,5.80
2023-01-07T07:54:44.892Z,5.80
2023-01-07T07:57:35.157Z,5.90
2023-01-07T08:00:24.410Z,5.90
2023-01-07T08:03:13.512Z,6.00
2023-01-07T08:06:02.358Z,6.00
2023-01-07T08:08:51.184Z,6.00
2023-01-07T08:11:40.188Z,6.10
2023-01-07T08:14:30.276Z,6.10
2023-01-07T08:17:19.415Z,6.20
2023-01-07T08:20:09.658Z,6.20
2023-01-07T08:23:00.036Z,6.30
2023-01-07T08:25:48.907Z,6.40
2023-01-07T08:28:39.545Z,6.40
2023-01-07T08:31:29.792Z,6.50
2023-01-07T08:34:18.673Z,6.50
2023-01-07T08:37:07.400Z,6.60
2023-01-07T08:39:56.190Z,6.60
2023-01-07T08:42:44.989Z,6.60
2023-01-07T08:45:33.837Z,6.60
2023-01-07T08:48:24.502Z,6.70
2023-01-07T08:51:13.378Z,6.80
2023-01-07T08:54:02.499Z,6.90
2023-01-07T08:56:51.134Z,6.90
2023-01-07T08:59:40.850Z,6.90
2023-01-07T09:02:29.796Z,7.00
2023-01-07T09:05:20.122Z,7.00
2023-01-07T09:08:08.889Z,7.00
2023-01-07T09:10:57.655Z,7.00
2023-01-07T09:13:46.508Z,7.20
2023-01-07T09:16:35.365Z,7.10
2023-01-07T09:19:24.613Z,7.10
2023-01-07T09:22:15.051Z,7.20
2023-01-07T09:25:03.938Z,7.20
2023-01-07T09:27:52.751Z,7.30
2023-01-07T09:30:41.995Z,7.20
2023-01-07T09:33:31.724Z,7.10
2023-01-07T09:36:20.499Z,7.10
2023-01-07T09:39:13.243Z,7.20
2023-01-07T09:42:10.867Z,7.10
2023-01-07T09:45:35.790Z,7.10
2023-01-07T09:48:30.077Z,7.20
2023-01-07T09:51:25.223Z,7.20
2023-01-07T09:54:23.338Z,7.20
2023-01-07T09:57:18.136Z,7.10
2023-01-07T10:00:16.810Z,7.10
2023-01-07T10:03:18.971Z,7.00
2023-01-07T10:06:12.477Z,7.00
2023-01-07T10:09:08.415Z,6.90
2023-01-07T10:12:20.210Z,7.00
2023-01-07T10:15:33.991Z,7.00
2023-01-07T10:18:37.073Z,7.00
2023-01-07T10:21:33.307Z,7.10
2023-01-07T10:24:27.523Z,7.20
2023-01-07T10:27:26.141Z,7.20
2023-01-07T10:30:19.341Z,7.20
2023-01-07T10:33:18.853Z,7.30
2023-01-07T10:36:20.188Z,7.40
2023-01-07T10:39:21.195Z,7.60
2023-01-07T10:42:18.145Z,7.60
2023-01-07T10:45:33.605Z,7.60
2023-01-07T10:49:08.421Z,7.50
2023-01-07T10:52:35.700Z,7.60
2023-01-07T10:55:41.617Z,7.50
2023-01-07T10:58:35.570Z,7.60
2023-01-07T11:01:29.436Z,7.70
2023-01-07T11:04:18.757Z,7.70
2023-01-07T11:07:09.953Z,7.80
2023-01-07T11:10:04.607Z,7.70
2023-01-07T11:12:57.439Z,7.80
2023-01-07T11:15:50.265Z,7.80
2023-01-07T11:18:48.427Z,7.80
2023-01-07T11:21:43.384Z,7.80
2023-01-07T11:24:34.548Z,7.90
2023-01-07T11:27:25.563Z,7.80
2023-01-07T11:30:25.945Z,7.90
2023-01-07T11:33:23.987Z,7.90
2023-01-07T11:36:43.792Z,8.00
2023-01-07T11:39:34.768Z,8.00
2023-01-07T11:42:41.787Z,8.00
2023-01-07T11:45:34.178Z,8.10
2023-01-07T11:48:29.641Z,8.00
2023-01-07T11:51:18.661Z,8.00
2023-01-07T11:54:21.921Z,7.90
2023-01-07T11:57:15.228Z,7.90
2023-01-07T12:00:21.887Z,7.90
2023-01-07T12:03:14.337Z,8.00
2023-01-07T12:06:08.854Z,8.00
2023-01-07T12:09:05.770Z,8.00
2023-01-07T12:11:58.917Z,8.00
2023-01-07T12:14:49.358Z,8.10
2023-01-07T12:17:39.353Z,8.10
2023-01-07T12:20:49.925Z,8.10
2023-01-07T12:23:51.148Z,8.20
2023-01-07T12:26:46.237Z,8.20
2023-01-07T12:29:49.529Z,8.10
2023-01-07T12:32:47.372Z,8.00
2023-01-07T12:35:41.990Z,8.00
2023-01-07T12:38:42.915Z,8.00
2023-01-07T12:41:35.003Z,8.00
2023-01-07T12:44:23.965Z,8.00
2023-01-07T12:47:31.867Z,8.10
2023-01-07T12:50:32.406Z,8.20
2023-01-07T12:53:33.807Z,8.20
2023-01-07T12:56:27.041Z,8.30
2023-01-07T12:59:46.569Z,8.20
2023-01-07T13:02:38.405Z,8.10
2023-01-07T13:05:33.633Z,8.10
2023-01-07T13:08:33.387Z,8.10
2023-01-07T13:11:47.314Z,8.20
2023-01-07T13:14:41.907Z,8.40
2023-01-07T13:17:33.366Z,8.40
2023-01-07T13:20:44.146Z,8.40
2023-01-07T13:23:50.620Z,8.40
2023-01-07T13:26:50.575Z,8.40
2023-01-07T13:29:50.663Z,8.40
2023-01-07T13:33:01.501Z,8.40
2023-01-07T13:36:10.047Z,8.40
2023-01-07T13:39:29.648Z,8.40
2023-01-07T13:42:31.598Z,8.40
2023-01-07T13:45:24.150Z,8.30
2023-01-07T13:48:23.237Z,8.30
2023-01-07T13:51:12.202Z,8.20
2023-01-07T13:54:01.227Z,8.10
2023-01-07T13:56:50.127Z,8.00
2023-01-07T13:59:50.179Z,7.80
2023-01-07T14:02:55.918Z,7.80
2023-01-07T14:05:47.434Z,7.70
2023-01-07T14:08:36.234Z,7.70
2023-01-07T14:11:48.855Z,7.60
2023-01-07T14:14:46.714Z,7.50
2023-01-07T14:17:46.777Z,7.30
2023-01-07T14:20:44.057Z,7.20
2023-01-07T14:23:45.805Z,7.30
2023-01-07T14:26:43.313Z,7.20
2023-01-07T14:29:42.304Z,7.30
2023-01-07T14:32:34.425Z,7.20
2023-01-07T14:35:29.817Z,7.20
2023-01-07T14:38:59.825Z,7.20
2023-01-07T14:42:21.929Z,7.10
2023-01-07T14:45:47.920Z,7.10
2023-01-07T14:48:38.082Z,7.00
2023-01-07T14:51:37.309Z,7.10
2023-01-07T14:54:48.453Z,7.10
2023-01-07T14:57:46.658Z,7.10
2023-01-07T15:00:56.164Z,7.00
2023-01-07T15:03:55.243Z,7.10
2023-01-07T15:06:44.657Z,7.10
2023-01-07T15:10:01.502Z,7.10
2023-01-07T15:13:11.719Z,7.20
2023-01-07T15:16:02.923Z,7.20
2023-01-07T15:18:54.551Z,7.20
2023-01-07T15:21:54.512Z,7.20
2023-01-07T15:24:51.818Z,7.30
2023-01-07T15:27:49.549Z,7.30
2023-01-07T15:30:49.071Z,7.30
2023-01-07T15:33:59.948Z,7.30
2023-01-07T15:36:51.210Z,7.30
2023-01-07T15:39:45.311Z,7.20
2023-01-07T15:42:36.201Z,7.20
2023-01-07T15:45:27.822Z,7.30
2023-01-07T15:48:16.715Z,7.40
2023-01-07T15:51:16.729Z,7.40
2023-01-07T15:54:07.309Z,7.50
2023-01-07T15:57:00.404Z,7.40
2023-01-07T15:59:54.487Z,7.40
2023-01-07T16:02:45.707Z,7.40
2023-01-07T16:05:38.068Z,7.40
2023-01-07T16:08:29.949Z,7.50
2023-01-07T16:11:25.556Z,7.50
2023-01-07T16:14:17.380Z,7.50
2023-01-07T16:17:14.563Z,7.50
2023-01-07T16:20:15.919Z,7.40
2023-01-07T16:23:20.668Z,7.40
2023-01-07T16:26:14.520Z,7.30
2023-01-07T16:29:09.993Z,7.30
2023-01-07T16:31:59.860Z,7.30
2023-01-07T16:35:09.560Z,7.30
2023-01-07T16:37:58.457Z,7.30
2023-01-07T16:40:48.168Z,7.30
2023-01-07T16:43:45.087Z,7.30
2023-01-07T16:46:36.320Z,7.30
2023-01-07T16:49:30.001Z,7.30
2023-01-07T16:52:21.884Z,7.30
2023-01-07T16:55:46.560Z,7.30
2023-01-07T16:58:43.023Z,7.30
2023-01-07T17:01:34.441Z,7.30
2023-01-07T17:04:30.013Z,7.30
2023-01-07T17:07:25.016Z,7.20
2023-01-07T17:10:22.035Z,7.20
2023-01-07T17:13:33.975Z,7.20
2023-01-07T17:16:26.514Z,7.20
2023-01-07T17:19:26.811Z,7.20
2023-01-07T17:22:32.498Z,7.20
2023-01-07T17:25:26.296Z,7.20
2023-01-07T17:28:19.362Z,7.20
2023-01-07T17:31:08.348Z,7.30
2023-01-07T17:33:57.561Z,7.30
2023-01-07T17:36:46.237Z,7.30
2023-01-07T17:39:36.319Z,7.30
2023-01-07T17:42:47.591Z,7.40
2023-01-07T17:45:36.467Z,7.40
2023-01-07T17:48:25.236Z,7.40
2023-01-07T17:51:14.097Z,7.30
2023-01-07T17:54:02.961Z,7.30
2023-01-07T17:56:53.589Z,7.20
2023-01-07T17:59:47.360Z,7.20
2023-01-07T18:02:36.426Z,7.10
2023-01-07T18:05:27.366Z,7.20
2023-01-07T18:08:16.152Z,7.20
2023-01-07T18:11:22.872Z,7.20
2023-01-07T18:14:14.414Z,7.20
2023-01-07T18:17:03.123Z,7.20
2023-01-07T18:19:51.856Z,7.20
2023-01-07T18:22:41.204Z,7.20
2023-01-07T18:25:30.249Z,7.10
2023-01-07T18:28:19.344Z,7.10
2023-01-07T18:31:09.870Z,7.20
2023-01-07T18:33:58.633Z,7.20
2023-01-07T18:36:47.437Z,7.20
2023-01-07T18:39:36.722Z,7.10
2023-01-07T18:42:25.432Z,7.10
2023-01-07T18:45:14.909Z,7.20
2023-01-07T18:48:05.343Z,7.20
2023-01-07T18:50:54.664Z,7.20
2023-01-07T18:53:43.376Z,7.00
2023-01-07T18:56:32.125Z,7.00
2023-01-07T18:59:20.841Z,7.00
2023-01-07T19:02:16.409Z,7.00
2023-01-07T19:05:07.747Z,7.10
2023-01-07T19:07:56.444Z,7.20
2023-01-07T19:10:45.593Z,7.20
2023-01-07T19:13:34.392Z,7.10
2023-01-07T19:16:23.137Z,7.10
2023-01-07T19:19:12.021Z,7.10
2023-01-07T19:22:02.191Z,7.20
2023-01-07T19:24:54.959Z,7.20
2023-01-07T19:27:43.854Z,7.10
2023-01-07T19:30:32.680Z,7.20
2023-01-07T19:33:21.817Z,7.00
2023-01-07T19:36:13.033Z,7.00
2023-01-07T19:39:03.561Z,7.10
2023-01-07T19:41:52.545Z,7.10
2023-01-07T19:44:41.734Z,7.00
2023-01-07T19:47:30.429Z,7.00
2023-01-07T19:50:19.229Z,7.00
2023-01-07T19:53:10.156Z,7.00
2023-01-07T19:56:02.601Z,7.10
2023-01-07T19:58:54.748Z,7.00
2023-01-07T20:01:45.349Z,7.00
2023-01-07T20:04:34.140Z,7.00
2023-01-07T20:07:23.043Z,7.00
2023-01-07T20:10:13.022Z,6.90
2023-01-07T20:13:03.141Z,6.90
2023-01-07T20:15:52.134Z,6.90
2023-01-07T20:18:42.435Z,6.80
2023-01-07T20:21:31.290Z,6.70
2023-01-07T20:24:20.074Z,6.60
2023-01-07T20:27:08.912Z,6.50
2023-01-07T20:29:59.060Z,6.60
2023-01-07T20:32:47.888Z,6.60
2023-01-07T20:35:37.721Z,6.50
2023-01-07T20:38:26.633Z,6.60
2023-01-07T20:41:17.386Z,6.50
2023-01-07T20:44:08.819Z,6.50
2023-01-07T20:46:59.454Z,6.50
2023-01-07T20:49:48.190Z,6.60
2023-01-07T20:52:37.067Z,6.80
2023-01-07T20:55:26.971Z,6.70
2023-01-07T20:58:15.607Z,6.80
2023-01-07T21:01:05.236Z,6.90
2023-01-07T21:03:55.441Z,6.70
2023-01-07T21:06:44.842Z,6.70
2023-01-07T21:09:33.631Z,6.70
2023-01-07T21:12:22.421Z,6.70
2023-01-07T21:15:13.086Z,6.70
2023-01-07T21:18:02.178Z,6.70
2023-01-07T21:20:52.473Z,6.70
2023-01-07T21:23:41.771Z,6.80
2023-01-07T21:26:30.961Z,6.80
2023-01-07T21:29:19.802Z,6.80
2023-01-07T21:32:09.126Z,6.80
2023-01-07T21:34:57.876Z,6.80
2023-01-07T21:37:49.874Z,6.80
2023-01-07T21:40:40.565Z,6.80
2023-01-07T21:43:29.430Z,6.80
2023-01-07T21:46:18.861Z,6.80
2023-01-07T21:49:08.336Z,6.70
2023-01-07T21:51:57.038Z,6.80
2023-01-07T21:54:47.223Z,6.80
2023-01-07T21:57:37.098Z,6.70
2023-01-07T22:00:25.966Z,6.80
2023-01-07T22:03:14.637Z,6.80
2023-01-07T22:06:05.406Z,6.70
2023-01-07T22:08:56.449Z,6.70
2023-01-07T22:11:46.931Z,6.70
2023-01-07T22:14:35.771Z,6.60
2023-01-07T22:17:25.215Z,6.60
2023-01-07T22:20:14.068Z,6.70
2023-01-07T22:23:02.838Z,6.80
2023-01-07T22:25:51.864Z,6.70
2023-01-07T22:28:43.108Z,6.70
2023-01-07T22:31:34.441Z,6.80
2023-01-07T22:34:23.280Z,6.80
2023-01-07T22:37:15.624Z,6.70
2023-01-07T22:40:07.332Z,6.70
2023-01-07T22:42:59.223Z,6.70
2023-01-07T22:45:54.132Z,6.60
2023-01-07T22:48:43.239Z,6.60
2023-01-07T22:51:38.656Z,6.60
2023-01-07T22:54:28.187Z,6.60
2023-01-07T22:57:17.157Z,6.70
2023-01-07T23:00:07.840Z,6.60
2023-01-07T23:02:58.406Z,6.60
2023-01-07T23:05:47.680Z,6.70
2023-01-07T23:08:36.992Z,6.60
2023-01-07T23:11:43.109Z,6.60
2023-01-07T23:14:32.833Z,6.60
2023-01-07T23:17:21.656Z,6.60
2023-01-07T23:20:12.441Z,6.60
2023-01-07T23:23:01.407Z,6.70
2023-01-07T23:25:51.618Z,6.60
2023-01-07T23:28:40.444Z,6.60
2023-01-07T23:31:29.381Z,6.50
2023-01-07T23:34:18.655Z,6.50
2023-01-07T23:37:09.000Z,6.50
2023-01-07T23:39:58.036Z,6.50
2023-01-07T23:42:49.169Z,6.60
2023-01-07T23:45:37.877Z,6.50
2023-01-07T23:48:27.531Z,6.50
2023-01-07T23:51:17.952Z,6.50
2023-01-07T23:54:08.475Z,6.50
2023-01-07T23:56:57.127Z,6.50
2023-01-07T23:59:45.797Z,6.50
